createdAt,value
2018-06-27T00:00:48.974Z,65.30
2018-06-27T00:03:18.352Z,65.50
2018-06-27T00:05:47.869Z,65.00
2018-06-27T00:08:17.176Z,65.00
2018-06-27T00:10:46.126Z,64.90
2018-06-27T00:13:15.455Z,65.00
2018-06-27T00:15:44.499Z,65.20
2018-06-27T00:18:14.494Z,65.20
2018-06-27T00:20:44.707Z,65.30
2018-06-27T00:23:14.375Z,65.50
2018-06-27T00:25:44.507Z,65.60
2018-06-27T00:28:14.415Z,65.90
2018-06-27T00:33:14.111Z,66.60
2018-06-27T00:35:43.610Z,66.10
2018-06-27T00:38:17.563Z,66.40
2018-06-27T00:40:48.444Z,66.30
2018-06-27T00:43:18.998Z,66.30
2018-06-27T00:45:48.729Z,66.40
2018-06-27T00:48:19.085Z,66.60
2018-06-27T00:50:49.306Z,67.10
2018-06-27T00:53:19.603Z,66.90
2018-06-27T00:55:48.619Z,67.10
2018-06-27T00:58:17.671Z,67.30
2018-06-27T01:00:46.378Z,67.40
2018-06-27T01:03:15.330Z,67.50
2018-06-27T01:05:44.210Z,67.80
2018-06-27T01:08:13.252Z,68.00
2018-06-27T01:10:42.677Z,68.00
2018-06-27T01:15:40.567Z,68.00
2018-06-27T01:18:09.831Z,67.80
2018-06-27T01:20:38.967Z,67.60
2018-06-27T01:23:07.859Z,67.60
2018-06-27T01:25:36.729Z,67.50
2018-06-27T01:28:05.789Z,67.00
2018-06-27T01:30:35.150Z,67.00
2018-06-27T01:33:04.015Z,67.10
2018-06-27T01:35:33.049Z,67.00
2018-06-27T01:38:02.405Z,67.30
2018-06-27T01:40:31.860Z,67.60
2018-06-27T01:43:01.271Z,67.50
2018-06-27T01:45:30.754Z,67.50
2018-06-27T01:48:06.478Z,67.80
2018-06-27T01:50:36.568Z,67.90
2018-06-27T01:53:06.861Z,67.80
2018-06-27T01:55:36.605Z,67.90
2018-06-27T01:58:06.735Z,67.90
2018-06-27T02:00:37.486Z,68.00
2018-06-27T02:03:07.065Z,68.10
2018-06-27T02:05:37.188Z,67.90
2018-06-27T02:08:07.426Z,68.10
2018-06-27T02:10:37.437Z,68.30
2018-06-27T02:13:07.461Z,68.40
2018-06-27T02:15:37.352Z,68.00
2018-06-27T02:18:06.672Z,68.00
2018-06-27T02:20:36.228Z,67.60
2018-06-27T02:23:10.801Z,67.20
2018-06-27T02:28:10.846Z,67.00
2018-06-27T02:30:40.585Z,67.00
2018-06-27T02:33:10.277Z,66.90
2018-06-27T02:35:39.421Z,67.20
2018-06-27T02:38:08.968Z,67.30
2018-06-27T02:40:38.027Z,67.30
2018-06-27T02:43:06.748Z,67.00
2018-06-27T02:45:35.416Z,66.20
2018-06-27T02:48:04.664Z,66.60
2018-06-27T02:50:34.271Z,66.30
2018-06-27T02:53:03.916Z,67.20
2018-06-27T02:55:32.871Z,66.20
2018-06-27T02:58:01.838Z,66.10
2018-06-27T03:00:32.136Z,66.20
2018-06-27T03:03:01.618Z,66.10
2018-06-27T03:05:30.360Z,67.00
2018-06-27T03:07:59.124Z,66.60
2018-06-27T03:12:57.715Z,66.80
2018-06-27T03:15:27.569Z,66.70
2018-06-27T03:17:56.310Z,66.80
2018-06-27T03:20:25.872Z,66.80
2018-06-27T03:22:54.693Z,66.80
2018-06-27T03:25:23.853Z,67.20
2018-06-27T03:27:53.759Z,67.10
2018-06-27T03:30:23.386Z,66.80
2018-06-27T03:32:52.979Z,66.70
2018-06-27T03:35:22.297Z,66.90
2018-06-27T03:37:51.190Z,67.10
2018-06-27T03:42:48.486Z,66.90
2018-06-27T03:45:17.918Z,66.70
2018-06-27T03:47:46.660Z,66.70
2018-06-27T03:50:15.579Z,66.90
2018-06-27T03:52:47.069Z,66.90
2018-06-27T03:55:16.668Z,67.00
2018-06-27T03:57:45.890Z,66.90
2018-06-27T04:00:15.097Z,66.80
2018-06-27T04:02:43.885Z,67.00
2018-06-27T04:05:14.184Z,66.60
2018-06-27T04:07:44.166Z,66.60
2018-06-27T04:10:13.349Z,66.50
2018-06-27T04:12:42.184Z,66.60
2018-06-27T04:15:10.896Z,66.70
2018-06-27T04:17:39.614Z,66.80
2018-06-27T04:22:36.756Z,67.20
2018-06-27T04:25:05.958Z,67.20
2018-06-27T04:27:35.381Z,67.40
2018-06-27T04:30:04.376Z,67.50
2018-06-27T04:32:34.254Z,67.60
2018-06-27T04:35:04.296Z,67.70
2018-06-27T04:37:33.229Z,67.80
2018-06-27T04:40:02.770Z,68.00
2018-06-27T04:42:32.454Z,68.20
2018-06-27T04:45:01.119Z,68.30
2018-06-27T04:47:30.252Z,68.30
2018-06-27T04:49:59.121Z,68.50
2018-06-27T04:52:28.094Z,68.60
2018-06-27T04:54:57.286Z,68.80
2018-06-27T04:57:26.472Z,68.90
2018-06-27T04:59:55.201Z,69.50
2018-06-27T05:02:23.966Z,69.00
2018-06-27T05:04:52.585Z,69.20
2018-06-27T05:07:21.199Z,69.20
2018-06-27T05:09:49.816Z,69.40
2018-06-27T05:12:18.527Z,69.60
2018-06-27T05:14:47.121Z,69.60
2018-06-27T05:17:15.880Z,69.30
2018-06-27T05:19:44.733Z,69.50
2018-06-27T05:22:14.385Z,69.30
2018-06-27T05:24:43.775Z,69.30
2018-06-27T05:27:12.367Z,69.40
2018-06-27T05:29:41.192Z,69.50
2018-06-27T05:34:38.250Z,69.40
2018-06-27T05:37:07.191Z,69.20
2018-06-27T05:39:35.779Z,69.20
2018-06-27T05:42:04.620Z,68.90
2018-06-27T05:44:33.365Z,69.00
2018-06-27T05:47:01.867Z,68.80
2018-06-27T05:49:30.889Z,68.80
2018-06-27T05:52:00.318Z,68.70
2018-06-27T05:54:29.129Z,69.00
2018-06-27T05:56:57.964Z,68.60
2018-06-27T05:59:26.666Z,69.10
2018-06-27T06:01:55.342Z,68.40
2018-06-27T06:04:24.753Z,68.80
2018-06-27T06:06:53.878Z,68.40
2018-06-27T06:09:22.722Z,69.00
2018-06-27T06:11:51.566Z,68.50
2018-06-27T06:14:20.851Z,68.70
2018-06-27T06:16:49.770Z,69.00
2018-06-27T06:19:18.743Z,68.40
2018-06-27T06:21:47.534Z,68.20
2018-06-27T06:24:16.379Z,68.00
2018-06-27T06:26:45.386Z,68.60
2018-06-27T06:29:14.202Z,68.70
2018-06-27T06:31:43.027Z,68.60
2018-06-27T06:34:11.979Z,68.20
2018-06-27T06:36:40.721Z,68.20
2018-06-27T06:39:10.068Z,68.30
2018-06-27T06:41:39.377Z,68.60
2018-06-27T06:44:08.407Z,68.20
2018-06-27T06:49:05.619Z,69.30
2018-06-27T06:51:34.717Z,68.20
2018-06-27T06:54:03.733Z,69.10
2018-06-27T06:56:32.926Z,69.30
2018-06-27T06:59:02.088Z,68.90
2018-06-27T07:01:31.101Z,69.20
2018-06-27T07:04:00.221Z,69.00
2018-06-27T07:06:29.243Z,69.50
2018-06-27T07:08:58.295Z,69.00
2018-06-27T07:11:27.539Z,68.60
2018-06-27T07:16:24.803Z,68.60
2018-06-27T07:18:53.582Z,68.80
2018-06-27T07:21:22.219Z,68.00
2018-06-27T07:23:50.992Z,68.40
2018-06-27T07:26:20.359Z,69.20
2018-06-27T07:28:49.159Z,69.50
2018-06-27T07:31:17.631Z,68.90
2018-06-27T07:33:46.484Z,68.60
2018-06-27T07:36:15.837Z,69.30
2018-06-27T07:38:44.595Z,68.50
2018-06-27T07:41:13.479Z,68.50
2018-06-27T07:43:42.090Z,69.20
2018-06-27T07:46:11.200Z,69.70
2018-06-27T07:48:40.986Z,70.00
2018-06-27T07:51:09.584Z,70.30
2018-06-27T07:53:38.284Z,71.00
2018-06-27T07:56:07.312Z,71.10
2018-06-27T07:58:36.136Z,70.40
2018-06-27T08:01:05.905Z,70.40
2018-06-27T08:03:35.534Z,70.20
2018-06-27T08:06:04.514Z,71.20
2018-06-27T08:08:33.148Z,71.50
2018-06-27T08:11:01.919Z,70.20
2018-06-27T08:13:30.770Z,70.40
2018-06-27T08:15:59.601Z,71.50
2018-06-27T08:20:57.592Z,70.70
2018-06-27T08:23:26.241Z,71.40
2018-06-27T08:25:55.415Z,71.00
2018-06-27T08:28:24.116Z,71.70
2018-06-27T08:30:53.480Z,71.80
2018-06-27T08:33:22.913Z,72.50
2018-06-27T08:35:52.916Z,71.40
2018-06-27T08:38:21.788Z,72.40
2018-06-27T08:40:50.710Z,72.90
2018-06-27T08:43:19.362Z,71.90
2018-06-27T08:45:48.069Z,71.30
2018-06-27T08:48:16.644Z,70.20
2018-06-27T08:50:45.318Z,71.90
2018-06-27T08:53:14.239Z,72.10
2018-06-27T08:55:43.055Z,71.80
2018-06-27T08:58:11.797Z,71.60
2018-06-27T09:00:40.395Z,72.20
2018-06-27T09:03:09.452Z,71.50
2018-06-27T09:05:38.532Z,72.30
2018-06-27T09:08:07.215Z,71.10
2018-06-27T09:10:35.969Z,71.50
2018-06-27T09:13:04.895Z,71.00
2018-06-27T09:15:33.818Z,70.80
2018-06-27T09:18:02.564Z,71.60
2018-06-27T09:20:31.418Z,72.00
2018-06-27T09:22:59.966Z,70.20
2018-06-27T09:25:29.149Z,70.40
2018-06-27T09:27:57.974Z,71.70
2018-06-27T09:30:26.921Z,72.50
2018-06-27T09:32:55.686Z,70.60
2018-06-27T09:35:24.698Z,70.20
2018-06-27T09:37:53.991Z,70.30
2018-06-27T09:40:23.033Z,71.30
2018-06-27T09:42:51.915Z,70.70
2018-06-27T09:45:21.041Z,70.20
2018-06-27T09:47:49.573Z,69.70
2018-06-27T09:50:18.567Z,68.60
2018-06-27T09:52:47.149Z,70.10
2018-06-27T09:55:16.041Z,70.60
2018-06-27T09:57:44.644Z,70.30
2018-06-27T10:00:18.542Z,69.70
2018-06-27T10:02:47.242Z,69.00
2018-06-27T10:05:16.168Z,68.10
2018-06-27T10:07:45.230Z,68.40
2018-06-27T10:10:13.869Z,67.40
2018-06-27T10:12:42.494Z,66.70
2018-06-27T10:15:11.175Z,64.00
2018-06-27T10:17:39.815Z,65.10
2018-06-27T10:20:08.469Z,65.40
2018-06-27T10:22:37.156Z,63.20
2018-06-27T10:25:06.026Z,62.20
2018-06-27T10:27:34.602Z,62.70
2018-06-27T10:30:03.577Z,60.70
2018-06-27T16:15:02.189Z,36.40
2018-06-27T16:17:31.227Z,36.50
2018-06-27T16:20:04.931Z,36.60
2018-06-27T16:22:35.461Z,37.00
2018-06-27T16:25:05.242Z,36.40
2018-06-27T16:27:33.917Z,36.40
2018-06-27T16:30:02.817Z,35.70
2018-06-27T16:32:31.654Z,35.50
2018-06-27T16:35:00.262Z,36.20
2018-06-27T16:37:28.956Z,35.40
2018-06-27T16:39:57.706Z,36.40
2018-06-27T16:42:26.460Z,35.80
2018-06-27T16:44:55.066Z,35.60
2018-06-27T16:47:23.718Z,35.60
2018-06-27T16:49:52.534Z,35.60
2018-06-27T16:52:21.210Z,36.00
2018-06-27T16:54:49.989Z,35.20
2018-06-27T16:57:18.537Z,35.70
2018-06-27T16:59:47.324Z,35.00
2018-06-27T17:02:16.166Z,35.60
2018-06-27T17:04:44.649Z,35.60
2018-06-27T17:07:13.386Z,34.80
2018-06-27T17:09:41.940Z,35.10
2018-06-27T17:12:10.582Z,35.30
2018-06-27T17:14:39.120Z,35.30
2018-06-27T17:17:08.117Z,35.80
2018-06-27T17:19:36.884Z,35.90
2018-06-27T17:22:05.701Z,36.20
2018-06-27T17:24:34.300Z,35.90
2018-06-27T17:27:02.882Z,35.50
2018-06-27T17:29:31.747Z,35.50
2018-06-27T17:32:00.697Z,35.60
2018-06-27T17:34:29.323Z,35.10
2018-06-27T17:36:58.479Z,35.90
2018-06-27T17:39:27.317Z,36.00
2018-06-27T17:41:56.147Z,36.20
2018-06-27T17:44:24.926Z,36.50
2018-06-27T17:46:54.008Z,37.20
2018-06-27T17:49:22.803Z,36.70
2018-06-27T17:51:51.798Z,36.40
2018-06-27T17:54:20.556Z,36.60
2018-06-27T17:56:49.141Z,36.80
2018-06-27T17:59:17.723Z,37.70
2018-06-27T18:01:46.490Z,37.50
2018-06-27T18:04:15.229Z,37.90
2018-06-27T18:06:44.209Z,37.40
2018-06-27T18:09:12.797Z,37.60
2018-06-27T18:11:41.523Z,38.10
2018-06-27T18:14:10.431Z,38.00
2018-06-27T18:16:39.110Z,38.20
2018-06-27T18:21:36.075Z,38.60
2018-06-27T18:24:04.991Z,39.10
2018-06-27T18:26:34.193Z,39.10
2018-06-27T18:29:03.091Z,39.20
2018-06-27T18:31:31.959Z,39.40
2018-06-27T18:34:01.340Z,39.50
2018-06-27T18:36:29.973Z,39.80
2018-06-27T18:38:58.729Z,39.90
2018-06-27T18:41:27.567Z,39.80
2018-06-27T18:43:56.754Z,39.70
2018-06-27T18:46:25.545Z,40.00
2018-06-27T18:48:54.503Z,40.10
2018-06-27T18:51:23.042Z,40.10
2018-06-27T18:53:51.890Z,40.50
2018-06-27T18:56:20.758Z,40.70
2018-06-27T18:58:49.661Z,40.90
2018-06-27T19:01:19.264Z,40.80
2018-06-27T19:03:48.101Z,41.00
2018-06-27T19:06:17.043Z,41.10
2018-06-27T19:08:46.027Z,41.40
2018-06-27T19:11:14.893Z,41.60
2018-06-27T19:13:44.590Z,41.70
2018-06-27T19:16:13.478Z,41.90
2018-06-27T19:18:42.421Z,42.30
2018-06-27T19:21:11.038Z,42.40
2018-06-27T19:23:39.681Z,42.50
2018-06-27T19:26:08.777Z,42.80
2018-06-27T19:28:37.860Z,43.00
2018-06-27T19:31:06.689Z,43.70
2018-06-27T19:33:35.518Z,43.70
2018-06-27T19:36:04.456Z,44.00
2018-06-27T19:38:33.257Z,44.10
2018-06-27T19:41:02.210Z,44.30
2018-06-27T19:43:31.203Z,44.80
2018-06-27T19:45:59.887Z,44.70
2018-06-27T19:48:28.741Z,44.60
2018-06-27T19:50:57.545Z,45.00
2018-06-27T19:53:26.529Z,45.60
2018-06-27T19:55:55.345Z,45.40
2018-06-27T19:58:24.119Z,45.50
2018-06-27T20:00:53.054Z,45.60
2018-06-27T20:03:22.052Z,45.90
2018-06-27T20:05:51.826Z,46.20
2018-06-27T20:08:21.774Z,46.00
2018-06-27T20:10:50.812Z,46.30
2018-06-27T20:13:19.473Z,46.60
2018-06-27T20:15:48.326Z,46.80
2018-06-27T20:18:17.143Z,47.20
2018-06-27T20:20:45.830Z,46.80
2018-06-27T20:25:43.427Z,47.20
2018-06-27T20:29:31.341Z,47.50
2018-06-27T20:31:59.968Z,47.60
2018-06-27T20:34:28.907Z,48.10
2018-06-27T20:36:57.850Z,48.00
2018-06-27T20:39:26.584Z,48.80
2018-06-27T20:41:55.431Z,48.90
2018-06-27T20:44:24.299Z,48.40
2018-06-27T20:46:53.209Z,48.50
2018-06-27T20:49:21.886Z,48.50
2018-06-27T20:51:50.817Z,48.90
2018-06-27T20:54:19.659Z,49.20
2018-06-27T20:56:48.586Z,49.50
2018-06-27T20:59:17.478Z,49.60
2018-06-27T21:01:46.601Z,49.90
2018-06-27T21:04:15.542Z,50.10
2018-06-27T21:06:44.867Z,50.40
2018-06-27T21:09:13.864Z,50.40
2018-06-27T21:11:42.587Z,50.50
2018-06-27T21:14:11.563Z,50.80
2018-06-27T21:16:42.377Z,50.90
2018-06-27T21:19:12.395Z,51.00
2018-06-27T21:21:41.316Z,51.10
2018-06-27T21:24:10.795Z,51.20
2018-06-27T21:26:40.744Z,51.50
2018-06-27T21:29:11.759Z,51.80
2018-06-27T21:31:41.869Z,52.10
2018-06-27T21:34:13.573Z,52.20
2018-06-27T21:36:43.266Z,52.40
2018-06-27T21:39:12.907Z,52.30
2018-06-27T21:41:42.927Z,52.00
2018-06-27T21:44:13.073Z,52.60
2018-06-27T21:46:42.112Z,52.90
2018-06-27T21:49:12.110Z,53.10
2018-06-27T21:51:41.350Z,53.20
2018-06-27T21:54:10.659Z,53.40
2018-06-27T21:56:40.275Z,53.50
2018-06-27T21:59:20.685Z,53.80
2018-06-27T22:01:50.081Z,53.90
2018-06-27T22:04:19.063Z,54.20
2018-06-27T22:06:48.200Z,54.50
2018-06-27T22:09:19.989Z,54.50
2018-06-27T22:11:49.197Z,54.40
2018-06-27T22:14:18.399Z,54.50
2018-06-27T22:16:48.517Z,54.70
2018-06-27T22:19:18.543Z,54.50
2018-06-27T22:21:48.503Z,54.80
2018-06-27T22:24:17.949Z,54.70
2018-06-27T22:26:46.850Z,54.80
2018-06-27T22:29:15.828Z,55.10
2018-06-27T22:31:44.944Z,55.00
2018-06-27T22:34:14.246Z,55.20
2018-06-27T22:36:43.236Z,55.20
2018-06-27T22:39:12.785Z,55.40
2018-06-27T22:41:42.261Z,55.90
2018-06-27T22:44:12.212Z,55.80
2018-06-27T22:46:41.118Z,55.90
2018-06-27T22:49:10.113Z,56.00
2018-06-27T22:51:39.704Z,56.00
2018-06-27T22:54:08.815Z,55.80
2018-06-27T22:56:38.110Z,55.80
2018-06-27T22:59:07.208Z,55.80
2018-06-27T23:01:36.179Z,55.50
2018-06-27T23:04:07.343Z,55.30
2018-06-27T23:06:36.815Z,55.30
2018-06-27T23:09:11.741Z,55.50
2018-06-27T23:11:41.257Z,55.50
2018-06-27T23:14:11.410Z,55.20
2018-06-27T23:16:40.440Z,55.30
2018-06-27T23:19:09.951Z,55.50
2018-06-27T23:21:39.734Z,55.40
2018-06-27T23:24:09.501Z,55.50
2018-06-27T23:26:38.394Z,55.40
2018-06-27T23:29:08.136Z,55.40
2018-06-27T23:31:36.714Z,55.40
2018-06-27T23:34:05.729Z,55.50
2018-06-27T23:36:34.572Z,55.50
2018-06-27T23:39:03.932Z,55.30
2018-06-27T23:41:33.044Z,55.40
2018-06-27T23:44:02.350Z,55.40
2018-06-27T23:46:33.381Z,55.50
2018-06-27T23:49:02.771Z,55.40
2018-06-27T23:51:32.052Z,55.60
2018-06-27T23:54:01.544Z,55.60
2018-06-27T23:56:30.785Z,55.90
2018-06-27T23:59:08.592Z,56.10
